CheckWX is a tool to help pilots better visualize weather data.  It is not intended as a substitute for an official pre-flight weather briefing.

20:36:00 UTC

KIXA METAR
Halifax-Northampton Regional Airport
Roanoke Rapids, North Carolina, USA
Current

11 mins ago

KIXA 182025Z AUTO 29012G16KT 10SM CLR 15/05 A3006 RMK AO2
Observed
Feb-18 @ 20:25 UTC
Wind
  • 290° at 12 KTS
  • Gusting to 16 KTS
Visibility
10 SM
Flight Rules
VFR
Cloud Levels
  • Clear skies
Temperature
15°C / 59°F
Dewpoint
C / 41°F
Humidity
51%
Altimeter
30.06" Hg
Pressure
1017.92 hPa
Previous

31 mins ago

KIXA 182005Z AUTO 29010G15KT 10SM CLR 16/06 A3004 RMK AO2
Observed
Feb-18 @ 20:05 UTC
Wind
  • 290° at 10 KTS
  • Gusting to 15 KTS
Visibility
10 SM
Flight Rules
VFR
Cloud Levels
  • Clear skies
Temperature
16°C / 61°F
Dewpoint
C / 43°F
Humidity
52%
Altimeter
30.04" Hg
Pressure
1017.32 hPa
Previous

51 mins ago

KIXA 181945Z AUTO 31010G14KT 10SM CLR 16/07 A3003 RMK AO2
Observed
Feb-18 @ 19:45 UTC
Wind
  • 310° at 10 KTS
  • Gusting to 14 KTS
Visibility
10 SM
Flight Rules
VFR
Cloud Levels
  • Clear skies
Temperature
16°C / 61°F
Dewpoint
C / 45°F
Humidity
55%
Altimeter
30.03" Hg
Pressure
1016.92 hPa